< < Back
Terminal Aerodrome Forecast


Current Version              Previous Versions:   1  2  3  4  5  6  7  8  9  

Terminal Aerodrome Forecast

118
FTUS42 KGSP 261720
TAFAND
TAF
KAND 261720Z 2618/2718 24013G20KT P6SM BKN060
     FM262000 24015G22KT P6SM VCTS BKN050CB
     FM262300 32008KT P6SM SCT200
     FM270200 04005KT P6SM SCT090
     FM271600 34003KT P6SM FEW250=

Latest METAR

163
SAUS70 KWBC 271500 RRH
MTRAND
METAR KAND 271456Z AUTO 22003KT 10SM FEW027 18/09 A2989 RMK AO2 SLP117
T01780094 50014


USA.gov is the U.S. government's official web portal to all federal, state and local government web resources and services.